CYYB

North Bay Airport

North Bay, , Canada
METAR CYYB 241122Z 10016KT 30SM BKN012 03/01 A3043 RMK SC6 SLP320
Observed Flight Rules
Sep-24 @ 11:22 UTC (10 minutes ago) Marginal Visual Flight Rules
Wind Visibility Clouds
100° at 16 knots 30 miles
  • Broken at 1,200' AGL
Temperatures Readings
Current 3°C / 37°F
Dewpoint 1°C / 34°F
Humidity 87%
Altimeter 30.43" Hg
Pressure 1032 hPa
Elevation 371
METAR CYYB 241122Z 10016KT 30SM BKN012 03/01 A3043 RMK SC6 SLP320
Observed Flight Rules
Sep-24 @ 11:22 UTC
(10 minutes ago)
MVFR
Wind Visibility
100° at 16 knots 30 miles
Clouds
  • Broken at 1,200' AGL
Temperature Dewpoint
3°C / 37°F 1°C / 34°F
Humidity Altimeter Pressure
87% 30.43" Hg 1032 hPa